createdAt,value
2022-09-28T00:02:37.234Z,72.50
2022-09-28T00:07:42.078Z,72.00
2022-09-28T00:12:47.071Z,71.90
2022-09-28T00:17:50.683Z,71.50
2022-09-28T00:22:54.478Z,71.20
2022-09-28T00:27:59.523Z,71.00
2022-09-28T00:33:03.228Z,71.00
2022-09-28T00:38:09.339Z,70.90
2022-09-28T00:43:22.043Z,70.40
2022-09-28T00:48:31.116Z,70.30
2022-09-28T00:53:39.292Z,70.40
2022-09-28T00:58:49.630Z,70.20
2022-09-28T01:03:53.778Z,70.00
2022-09-28T01:09:03.604Z,69.80
2022-09-28T01:14:12.607Z,69.80
2022-09-28T01:19:45.683Z,69.50
2022-09-28T01:24:51.549Z,69.10
2022-09-28T01:30:07.489Z,68.90
2022-09-28T01:35:17.789Z,68.70
2022-09-28T01:40:25.543Z,68.70
2022-09-28T01:45:46.255Z,68.40
2022-09-28T01:50:56.442Z,68.40
2022-09-28T01:56:11.717Z,67.70
2022-09-28T02:01:25.534Z,68.30
2022-09-28T02:06:35.332Z,67.90
2022-09-28T02:11:46.789Z,67.50
2022-09-28T02:16:55.452Z,67.30
2022-09-28T02:22:23.430Z,67.20
2022-09-28T02:27:37.510Z,67.00
2022-09-28T02:32:48.059Z,67.00
2022-09-28T02:37:52.748Z,66.70
2022-09-28T02:43:09.829Z,66.60
2022-09-28T02:49:00.194Z,66.70
2022-09-28T02:54:46.301Z,67.00
2022-09-28T03:00:05.482Z,67.10
2022-09-28T03:05:22.112Z,66.60
2022-09-28T03:10:34.834Z,66.60
2022-09-28T03:15:39.309Z,67.10
2022-09-28T03:20:44.570Z,66.00
2022-09-28T03:25:48.331Z,66.40
2022-09-28T03:30:52.171Z,66.40
2022-09-28T03:35:57.807Z,66.50
2022-09-28T03:41:02.270Z,66.50
2022-09-28T03:46:11.532Z,66.40
2022-09-28T03:51:21.874Z,66.30
2022-09-28T03:56:25.501Z,66.00
2022-09-28T04:01:29.024Z,65.60
2022-09-28T04:06:34.119Z,65.70
2022-09-28T04:11:53.120Z,65.40
2022-09-28T04:17:01.900Z,65.20
2022-09-28T04:22:08.999Z,65.10
2022-09-28T04:27:30.199Z,65.10
2022-09-28T04:32:33.933Z,65.10
2022-09-28T04:37:39.187Z,64.90
2022-09-28T04:42:43.432Z,64.60
2022-09-28T04:47:47.028Z,64.10
2022-09-28T04:53:15.048Z,63.60
2022-09-28T04:58:19.049Z,63.70
2022-09-28T05:03:23.384Z,63.40
2022-09-28T05:27:46.404Z,63.90
2022-09-28T05:45:55.950Z,64.90
2022-09-28T05:51:00.102Z,65.10
2022-09-28T06:06:45.697Z,65.30
2022-09-28T06:11:49.462Z,65.40
2022-09-28T06:17:05.323Z,65.60
2022-09-28T06:22:09.138Z,65.60
2022-09-28T06:27:21.747Z,65.10
2022-09-28T06:32:29.283Z,65.00
2022-09-28T06:37:33.411Z,65.60
2022-09-28T06:42:38.630Z,65.60
2022-09-28T06:48:08.514Z,65.90
2022-09-28T06:53:16.504Z,66.40
2022-09-28T06:58:31.404Z,66.40
2022-09-28T07:03:37.690Z,66.80
2022-09-28T07:09:07.893Z,67.50
2022-09-28T07:14:47.386Z,67.80
2022-09-28T07:19:53.703Z,68.10
2022-09-28T07:24:58.767Z,68.80
2022-09-28T07:30:21.213Z,68.80
2022-09-28T07:35:58.391Z,69.40
2022-09-28T07:41:16.907Z,69.50
2022-09-28T07:46:24.221Z,70.10
2022-09-28T07:51:36.255Z,70.60
2022-09-28T07:57:01.014Z,71.20
2022-09-28T08:02:20.381Z,71.60
2022-09-28T08:07:25.721Z,72.30
2022-09-28T08:12:40.733Z,72.40
2022-09-28T08:18:07.502Z,72.60
2022-09-28T08:23:13.100Z,72.60
2022-09-28T08:28:19.285Z,72.70
2022-09-28T08:33:24.801Z,72.70
2022-09-28T08:44:24.103Z,72.10
2022-09-28T08:49:58.947Z,68.10
2022-09-28T08:55:39.096Z,66.70
2022-09-28T09:00:49.564Z,66.40
2022-09-28T09:06:08.955Z,65.90
2022-09-28T09:11:51.300Z,65.60
2022-09-28T09:17:11.593Z,65.70
2022-09-28T09:22:52.687Z,65.10
2022-09-28T09:28:28.013Z,64.60
2022-09-28T09:34:21.377Z,64.50
2022-09-28T09:40:08.271Z,64.30
2022-09-28T09:45:55.945Z,64.00
2022-09-28T09:51:41.209Z,63.70
2022-09-28T09:56:54.912Z,63.40
2022-09-28T10:02:27.968Z,63.50
2022-09-28T10:07:52.091Z,63.70
2022-09-28T10:12:56.387Z,63.40
2022-09-28T10:18:07.868Z,63.10
2022-09-28T10:40:43.574Z,62.10
2022-09-28T10:45:48.281Z,62.10
2022-09-28T10:51:08.844Z,61.80
2022-09-28T10:56:24.251Z,61.70
2022-09-28T11:01:35.333Z,61.60
2022-09-28T11:06:42.928Z,61.40
2022-09-28T11:11:49.897Z,61.20
2022-09-28T11:17:21.674Z,61.20
2022-09-28T11:22:30.152Z,61.10
2022-09-28T11:27:40.451Z,60.80
2022-09-28T11:32:46.940Z,60.30
2022-09-28T11:38:24.745Z,61.00
2022-09-28T11:44:20.585Z,61.50
2022-09-28T11:49:41.662Z,61.90
2022-09-28T11:54:52.060Z,62.40
2022-09-28T12:00:02.755Z,62.70
2022-09-28T12:05:21.255Z,63.00
2022-09-28T12:10:44.665Z,63.60
2022-09-28T12:16:23.321Z,64.00
2022-09-28T12:21:45.202Z,64.60
2022-09-28T12:26:56.355Z,64.80
2022-09-28T12:32:12.187Z,64.80
2022-09-28T12:37:44.504Z,66.00
2022-09-28T12:43:19.636Z,65.40
2022-09-28T12:55:08.224Z,65.80
2022-09-28T13:00:16.270Z,66.10
2022-09-28T13:06:09.728Z,66.30
2022-09-28T13:11:26.370Z,66.30
2022-09-28T13:16:40.428Z,66.50
2022-09-28T13:21:53.830Z,66.60
2022-09-28T13:27:05.641Z,66.70
2022-09-28T13:32:12.689Z,66.80
2022-09-28T13:37:25.660Z,66.70
2022-09-28T13:43:03.621Z,67.00
2022-09-28T13:48:17.315Z,67.10
2022-09-28T13:53:40.622Z,67.20
2022-09-28T13:58:49.807Z,67.20
2022-09-28T14:04:13.545Z,67.40
2022-09-28T14:09:43.791Z,67.70
2022-09-28T14:14:52.074Z,67.70
2022-09-28T14:20:03.541Z,67.80
2022-09-28T14:25:17.222Z,67.80
2022-09-28T14:30:25.747Z,68.00
2022-09-28T14:35:35.246Z,68.10
2022-09-28T14:41:10.598Z,68.20
2022-09-28T14:46:45.881Z,68.20
2022-09-28T14:52:12.380Z,68.20
2022-09-28T14:57:24.102Z,68.10
2022-09-28T15:02:33.426Z,68.40
2022-09-28T15:07:48.649Z,68.10
2022-09-28T15:12:56.072Z,68.70
2022-09-28T15:18:43.753Z,69.40
2022-09-28T15:23:48.111Z,66.00
2022-09-28T15:28:52.940Z,65.10
2022-09-28T15:34:14.245Z,65.50
2022-09-28T15:39:36.880Z,64.30
2022-09-28T15:44:45.696Z,64.10
2022-09-28T15:49:59.417Z,64.00
2022-09-28T15:55:07.176Z,63.70
2022-09-28T16:00:26.686Z,61.70
2022-09-28T16:05:42.941Z,61.20
2022-09-28T16:10:59.385Z,62.10
2022-09-28T16:16:04.441Z,64.90
2022-09-28T16:21:45.018Z,65.60
2022-09-28T16:26:49.372Z,68.40
2022-09-28T16:31:55.362Z,67.30
2022-09-28T16:36:58.969Z,67.00
2022-09-28T16:42:05.035Z,69.00
2022-09-28T16:47:09.964Z,70.30
2022-09-28T16:52:13.863Z,69.80
2022-09-28T16:57:17.666Z,69.80
2022-09-28T17:07:50.720Z,70.00
2022-09-28T17:12:54.209Z,70.20
2022-09-28T17:17:59.194Z,69.30
2022-09-28T17:23:02.992Z,68.90
2022-09-28T17:28:07.069Z,68.70
2022-09-28T17:33:13.351Z,68.80
2022-09-28T17:38:17.739Z,68.90
2022-09-28T17:43:22.231Z,69.10
2022-09-28T17:48:27.192Z,69.10
2022-09-28T17:53:30.748Z,69.40
2022-09-28T17:58:34.370Z,69.60
2022-09-28T18:03:39.609Z,69.60
2022-09-28T18:08:43.900Z,69.60
2022-09-28T18:13:47.423Z,69.70
2022-09-28T18:18:52.477Z,70.20
2022-09-28T18:23:56.385Z,69.80
2022-09-28T18:29:00.193Z,69.40
2022-09-28T18:34:05.975Z,69.00
2022-09-28T18:39:09.883Z,68.80
2022-09-28T18:44:13.834Z,68.70
2022-09-28T18:49:19.252Z,68.50
2022-09-28T18:54:24.579Z,67.80
2022-09-28T18:59:28.547Z,66.80
2022-09-28T19:04:33.507Z,65.90
2022-09-28T19:09:37.214Z,65.40
2022-09-28T19:14:41.059Z,64.90
2022-09-28T19:19:45.949Z,64.60
2022-09-28T19:24:49.430Z,64.50
2022-09-28T19:29:53.176Z,64.60
2022-09-28T19:34:58.603Z,64.80
2022-09-28T19:40:03.955Z,65.00
2022-09-28T19:45:08.997Z,65.10
2022-09-28T19:50:13.966Z,65.30
2022-09-28T19:55:19.053Z,65.50
2022-09-28T20:00:22.706Z,65.70
2022-09-28T20:05:27.746Z,66.20
2022-09-28T20:10:31.305Z,67.30
2022-09-28T20:15:37.381Z,68.10
2022-09-28T20:20:43.059Z,68.40
2022-09-28T20:25:46.617Z,69.10
2022-09-28T20:30:50.203Z,69.50
2022-09-28T20:35:56.041Z,69.60
2022-09-28T20:41:01.838Z,70.00
2022-09-28T20:46:08.547Z,70.20
2022-09-28T20:51:17.756Z,70.40
2022-09-28T20:56:24.578Z,70.70
2022-09-28T21:01:30.535Z,70.90
2022-09-28T21:06:38.638Z,71.10
2022-09-28T21:11:42.073Z,71.30
2022-09-28T21:16:45.634Z,71.60
2022-09-28T21:21:50.511Z,72.00
2022-09-28T21:26:55.587Z,72.00
2022-09-28T21:31:59.159Z,72.10
2022-09-28T21:37:04.028Z,72.30
2022-09-28T21:42:07.932Z,72.60
2022-09-28T21:47:11.406Z,72.80
2022-09-28T21:52:16.601Z,72.80
2022-09-28T21:57:20.038Z,73.00
2022-09-28T22:02:23.842Z,73.20
2022-09-28T22:07:28.959Z,73.30
2022-09-28T22:12:32.591Z,73.40
2022-09-28T22:17:36.055Z,73.40
2022-09-28T22:22:40.915Z,73.20
2022-09-28T22:27:46.012Z,73.10
2022-09-28T22:32:49.551Z,72.70
2022-09-28T22:37:54.570Z,72.30
2022-09-28T22:42:58.109Z,71.90
2022-09-28T22:48:01.584Z,71.60
2022-09-28T22:53:07.052Z,71.60
2022-09-28T22:58:10.744Z,71.40
2022-09-28T23:03:14.256Z,71.40
2022-09-28T23:08:19.195Z,71.40
2022-09-28T23:13:22.734Z,71.50
2022-09-28T23:18:30.104Z,71.60
2022-09-28T23:23:35.332Z,71.70
2022-09-28T23:28:38.914Z,71.80
2022-09-28T23:33:42.435Z,72.10
2022-09-28T23:38:47.405Z,72.20
2022-09-28T23:43:51.006Z,72.30
2022-09-28T23:48:54.897Z,73.20
2022-09-28T23:53:59.714Z,72.70
2022-09-28T23:59:03.262Z,73.00
